Elk Mound, Wisconsin
Current Conditions -  °F | °C
As of 2:15 AM on Monday 24 Nov 2014 (Local Time) from KLUM Reporting Station
Moderate Rain Moderate Rain  
Wind Chill: 26°   Ceiling: 900
Heat Index: 35°   Visibility: 4mi
Dew Point: 34°   Wind: 14mph
Humidity: 98%   Direction: 290°WNW
Pressure: 29.22"   Gusts: NA
Location:  44.87°N, 91.69°W
Report Text: KLUM 240815Z AUTO 29012KT 4SM RA BKN009 OVC015 02/01 A2922 RMK AO2 P0001 T00160013
Loading
Personal Weather Stations






























Interactive Weather Map New forecast layout! Learn more

10-Day Weather Forecast

Advertisements
Track Severe Weather on mobile